NOZ243 ENBR-BIKF
Flight info
| Callsign | NOZ243 |
|---|---|
| Flight time | 2h 16m |
| Altitude | 38000 |
| Route | REKLI DCT VALDI/M079F380 DCT 62N004W 63N010W DCT ING DCT NASBU NASBU4K |
| Aircraft | B738/M-SDE2E3FGHIRWXY/LB1 |
Departure
| Time | 2026-04-28 00:33 |
|---|---|
| Airport | Bergen Airport, Flesland (ENBR) |
Arrival
| Time | 2026-04-28 02:49 |
|---|---|
| Airport | Keflavik International Airport (BIKF) |
| Time | Latitude | Longitude | Altitude | Speed | Heading |
|---|---|---|---|---|---|
| 2026-04-28 00:07 | 60.28828 | 5.22611 | 174 ft | 0 kts | 34° |
| 2026-04-28 00:25 | 60.28820 | 5.22601 | 174 ft | 4 kts | 36° |
| 2026-04-28 00:25 | 60.28800 | 5.22567 | 174 ft | 4 kts | 43° |
| 2026-04-28 00:25 | 60.28781 | 5.22528 | 174 ft | 4 kts | 52° |
| 2026-04-28 00:26 | 60.28767 | 5.22484 | 174 ft | 4 kts | 82° |
| 2026-04-28 00:26 | 60.28768 | 5.22454 | 173 ft | 2 kts | 169° |
| 2026-04-28 00:26 | 60.28774 | 5.22452 | 173 ft | 0 kts | 171° |
| 2026-04-28 00:28 | 60.28749 | 5.22461 | 173 ft | 7 kts | 170° |
| 2026-04-28 00:29 | 60.28687 | 5.22408 | 168 ft | 13 kts | 227° |
| 2026-04-28 00:29 | 60.28593 | 5.22391 | 165 ft | 15 kts | 171° |
| 2026-04-28 00:29 | 60.28492 | 5.22426 | 163 ft | 15 kts | 172° |
| 2026-04-28 00:29 | 60.28377 | 5.22462 | 159 ft | 18 kts | 171° |
| 2026-04-28 00:30 | 60.28238 | 5.22506 | 155 ft | 22 kts | 171° |
| 2026-04-28 00:30 | 60.28119 | 5.22544 | 152 ft | 15 kts | 175° |
| 2026-04-28 00:30 | 60.28062 | 5.22470 | 151 ft | 0 kts | 248° |
| 2026-04-28 00:31 | 60.28058 | 5.22445 | 151 ft | 6 kts | 254° |
| 2026-04-28 00:31 | 60.28050 | 5.22342 | 153 ft | 9 kts | 270° |
| 2026-04-28 00:31 | 60.28090 | 5.22239 | 152 ft | 11 kts | 340° |
| 2026-04-28 00:32 | 60.28145 | 5.22215 | 152 ft | 0 kts | 351° |
| 2026-04-28 00:32 | 60.28157 | 5.22211 | 152 ft | 16 kts | 351° |
| 2026-04-28 00:32 | 60.28648 | 5.22050 | 160 ft | 123 kts | 350° |
| 2026-04-28 00:32 | 60.29755 | 5.21683 | 430 ft | 189 kts | 351° |
| 2026-04-28 00:33 | 60.31082 | 5.21164 | 1710 ft | 199 kts | 349° |
| 2026-04-28 00:33 | 60.32550 | 5.20682 | 2442 ft | 224 kts | 351° |
| 2026-04-28 00:33 | 60.34124 | 5.20215 | 3194 ft | 233 kts | 351° |
| 2026-04-28 00:33 | 60.35813 | 5.19695 | 3718 ft | 254 kts | 351° |
| 2026-04-28 00:34 | 60.37580 | 5.19126 | 4586 ft | 260 kts | 350° |
| 2026-04-28 00:34 | 60.39375 | 5.18526 | 5548 ft | 262 kts | 350° |
| 2026-04-28 00:34 | 60.41182 | 5.17906 | 6474 ft | 266 kts | 350° |
| 2026-04-28 00:34 | 60.43002 | 5.17274 | 6905 ft | 267 kts | 350° |
| 2026-04-28 00:35 | 60.44838 | 5.16633 | 6996 ft | 269 kts | 350° |
| 2026-04-28 00:35 | 60.46637 | 5.15638 | 6980 ft | 268 kts | 331° |
| 2026-04-28 00:35 | 60.48000 | 5.13131 | 6991 ft | 268 kts | 303° |
| 2026-04-28 00:35 | 60.48647 | 5.09614 | 6998 ft | 269 kts | 278° |
| 2026-04-28 00:36 | 60.48579 | 5.05828 | 6999 ft | 270 kts | 262° |
| 2026-04-28 00:36 | 60.48151 | 5.02109 | 6996 ft | 275 kts | 245° |
| 2026-04-28 00:36 | 60.46916 | 4.99138 | 7536 ft | 281 kts | 216° |
| 2026-04-28 00:36 | 60.45122 | 4.97605 | 8493 ft | 283 kts | 190° |
| 2026-04-28 00:37 | 60.43139 | 4.97637 | 9354 ft | 289 kts | 175° |
| 2026-04-28 00:37 | 60.41118 | 4.98091 | 10146 ft | 296 kts | 174° |
| 2026-04-28 00:37 | 60.39080 | 4.98575 | 10896 ft | 301 kts | 174° |
| 2026-04-28 00:37 | 60.36960 | 4.99052 | 11701 ft | 305 kts | 175° |
| 2026-04-28 00:38 | 60.34862 | 4.99502 | 12506 ft | 309 kts | 175° |
| 2026-04-28 00:38 | 60.32703 | 4.99949 | 13336 ft | 314 kts | 176° |
| 2026-04-28 00:38 | 60.30539 | 4.99547 | 14128 ft | 315 kts | 202° |
| 2026-04-28 00:38 | 60.28681 | 4.97310 | 14921 ft | 311 kts | 228° |
| 2026-04-28 00:39 | 60.27454 | 4.93770 | 15711 ft | 307 kts | 251° |
| 2026-04-28 00:39 | 60.26950 | 4.89641 | 16514 ft | 305 kts | 267° |
| 2026-04-28 00:39 | 60.26734 | 4.85372 | 17321 ft | 308 kts | 269° |
| 2026-04-28 00:39 | 60.26532 | 4.81038 | 18128 ft | 313 kts | 269° |
| 2026-04-28 00:40 | 60.26312 | 4.76644 | 18911 ft | 317 kts | 268° |
| 2026-04-28 00:40 | 60.26078 | 4.72199 | 19608 ft | 321 kts | 269° |
| 2026-04-28 00:40 | 60.26093 | 4.67743 | 20246 ft | 318 kts | 286° |
| 2026-04-28 00:40 | 60.26855 | 4.63612 | 20938 ft | 314 kts | 301° |
| 2026-04-28 00:41 | 60.27880 | 4.59710 | 21673 ft | 316 kts | 303° |
| 2026-04-28 00:41 | 60.28942 | 4.55815 | 22385 ft | 319 kts | 303° |
| 2026-04-28 00:41 | 60.30017 | 4.51877 | 23082 ft | 322 kts | 304° |
| 2026-04-28 00:41 | 60.31032 | 4.48137 | 23740 ft | 325 kts | 304° |
| 2026-04-28 00:42 | 60.32116 | 4.44104 | 24364 ft | 328 kts | 304° |
| 2026-04-28 00:42 | 60.33189 | 4.40085 | 24939 ft | 331 kts | 304° |
| 2026-04-28 00:42 | 60.34292 | 4.35928 | 25540 ft | 333 kts | 304° |
| 2026-04-28 00:42 | 60.35385 | 4.31791 | 26119 ft | 335 kts | 304° |
| 2026-04-28 00:43 | 60.36478 | 4.27640 | 26774 ft | 334 kts | 305° |
| 2026-04-28 00:43 | 60.37557 | 4.23522 | 27563 ft | 329 kts | 305° |
| 2026-04-28 00:43 | 60.38623 | 4.19449 | 28317 ft | 326 kts | 306° |
| 2026-04-28 00:43 | 60.39679 | 4.15415 | 28990 ft | 325 kts | 306° |
| 2026-04-28 00:44 | 60.40715 | 4.11449 | 29713 ft | 321 kts | 306° |
| 2026-04-28 00:44 | 60.41751 | 4.07477 | 30437 ft | 318 kts | 307° |
| 2026-04-28 00:44 | 60.42781 | 4.03529 | 30944 ft | 317 kts | 307° |
| 2026-04-28 00:44 | 60.43810 | 3.99580 | 31408 ft | 317 kts | 307° |
| 2026-04-28 00:45 | 60.44835 | 3.95631 | 31930 ft | 315 kts | 307° |
| 2026-04-28 00:45 | 60.45846 | 3.91708 | 32485 ft | 314 kts | 306° |
| 2026-04-28 00:45 | 60.46770 | 3.87685 | 32981 ft | 315 kts | 304° |
| 2026-04-28 00:45 | 60.47638 | 3.83594 | 33465 ft | 315 kts | 304° |
| 2026-04-28 00:46 | 60.48485 | 3.79502 | 33945 ft | 314 kts | 304° |
| 2026-04-28 00:46 | 60.49325 | 3.75434 | 34408 ft | 312 kts | 304° |
| 2026-04-28 00:46 | 60.50165 | 3.71374 | 34780 ft | 312 kts | 304° |
| 2026-04-28 00:46 | 60.51010 | 3.67309 | 35081 ft | 314 kts | 304° |
| 2026-04-28 00:47 | 60.51859 | 3.63230 | 35391 ft | 314 kts | 304° |
| 2026-04-28 00:47 | 60.52710 | 3.59144 | 35720 ft | 314 kts | 303° |
| 2026-04-28 00:47 | 60.53562 | 3.55049 | 36028 ft | 315 kts | 303° |
| 2026-04-28 00:47 | 60.54416 | 3.50943 | 36320 ft | 316 kts | 303° |
| 2026-04-28 00:48 | 60.55270 | 3.46831 | 36614 ft | 316 kts | 303° |
| 2026-04-28 00:48 | 60.56124 | 3.42713 | 36892 ft | 316 kts | 303° |
| 2026-04-28 00:48 | 60.56988 | 3.38552 | 36951 ft | 324 kts | 302° |
| 2026-04-28 00:49 | 60.58776 | 3.29933 | 37097 ft | 338 kts | 302° |
| 2026-04-28 00:49 | 60.60630 | 3.20937 | 37235 ft | 352 kts | 301° |
| 2026-04-28 00:50 | 60.62561 | 3.11507 | 37372 ft | 366 kts | 301° |
| 2026-04-28 00:50 | 60.64547 | 3.01754 | 37492 ft | 379 kts | 301° |
| 2026-04-28 00:51 | 60.66591 | 2.91662 | 37605 ft | 391 kts | 300° |
| 2026-04-28 00:51 | 60.68692 | 2.81234 | 37720 ft | 403 kts | 300° |
| 2026-04-28 00:52 | 60.70829 | 2.70576 | 37776 ft | 414 kts | 300° |
| 2026-04-28 00:52 | 60.73026 | 2.59558 | 37944 ft | 422 kts | 299° |
| 2026-04-28 00:52 | 60.74127 | 2.54001 | 38259 ft | 421 kts | 299° |
| 2026-04-28 00:53 | 60.75222 | 2.48457 | 38528 ft | 421 kts | 299° |
| 2026-04-28 00:53 | 60.76315 | 2.42914 | 38737 ft | 421 kts | 299° |
| 2026-04-28 00:53 | 60.77411 | 2.37346 | 38967 ft | 422 kts | 299° |
| 2026-04-28 00:53 | 60.78505 | 2.31777 | 39194 ft | 421 kts | 299° |
| 2026-04-28 00:54 | 60.79595 | 2.26215 | 39362 ft | 422 kts | 298° |
| 2026-04-28 00:54 | 60.80688 | 2.20619 | 39512 ft | 423 kts | 298° |
| 2026-04-28 00:54 | 60.81778 | 2.15026 | 39691 ft | 423 kts | 298° |
| 2026-04-28 00:54 | 60.82867 | 2.09422 | 39854 ft | 423 kts | 298° |
| 2026-04-28 00:55 | 60.83955 | 2.03813 | 39970 ft | 424 kts | 298° |
| 2026-04-28 00:55 | 60.85037 | 1.98210 | 40176 ft | 423 kts | 298° |
| 2026-04-28 00:55 | 60.86117 | 1.92600 | 40327 ft | 423 kts | 297° |
| 2026-04-28 00:55 | 60.87200 | 1.86970 | 40432 ft | 425 kts | 297° |
| 2026-04-28 00:56 | 60.88283 | 1.81322 | 40457 ft | 427 kts | 297° |
| 2026-04-28 00:56 | 60.90451 | 1.69956 | 40459 ft | 426 kts | 297° |
| 2026-04-28 00:57 | 60.92595 | 1.58639 | 40456 ft | 424 kts | 297° |
| 2026-04-28 00:57 | 60.94721 | 1.47364 | 40457 ft | 422 kts | 297° |
| 2026-04-28 00:58 | 60.96830 | 1.36118 | 40426 ft | 420 kts | 297° |
| 2026-04-28 00:58 | 60.98907 | 1.24975 | 40443 ft | 419 kts | 297° |
| 2026-04-28 00:59 | 61.00985 | 1.13767 | 40455 ft | 419 kts | 297° |
| 2026-04-28 00:59 | 61.03055 | 1.02540 | 40453 ft | 419 kts | 297° |
| 2026-04-28 01:00 | 61.05119 | 0.91274 | 40464 ft | 420 kts | 297° |
| 2026-04-28 01:00 | 61.07175 | 0.79989 | 40453 ft | 421 kts | 296° |
| 2026-04-28 01:01 | 61.09227 | 0.68654 | 40419 ft | 421 kts | 296° |
| 2026-04-28 01:01 | 61.11268 | 0.57312 | 40435 ft | 421 kts | 296° |
| 2026-04-28 01:02 | 61.13299 | 0.45963 | 40438 ft | 421 kts | 296° |
| 2026-04-28 01:02 | 61.15323 | 0.34583 | 40440 ft | 421 kts | 296° |
| 2026-04-28 01:03 | 61.17337 | 0.23189 | 40434 ft | 421 kts | 296° |
| 2026-04-28 01:03 | 61.19340 | 0.11800 | 40448 ft | 421 kts | 296° |
| 2026-04-28 01:04 | 61.21338 | 0.00390 | 40437 ft | 420 kts | 297° |
| 2026-04-28 01:04 | 61.23602 | -0.10708 | 40427 ft | 416 kts | 300° |
| 2026-04-28 01:05 | 61.25998 | -0.21631 | 40444 ft | 415 kts | 300° |
| 2026-04-28 01:05 | 61.28375 | -0.32563 | 40440 ft | 415 kts | 300° |
| 2026-04-28 01:06 | 61.30346 | -0.41764 | 40437 ft | 415 kts | 299° |
| 2026-04-28 01:06 | 61.32676 | -0.52756 | 40440 ft | 415 kts | 299° |
| 2026-04-28 01:07 | 61.34994 | -0.63767 | 40445 ft | 415 kts | 299° |
| 2026-04-28 01:07 | 61.37302 | -0.74794 | 40436 ft | 415 kts | 299° |
| 2026-04-28 01:08 | 61.39601 | -0.85840 | 40434 ft | 415 kts | 299° |
| 2026-04-28 01:08 | 61.41871 | -0.96799 | 40433 ft | 414 kts | 298° |
| 2026-04-28 01:09 | 61.44147 | -1.07849 | 40438 ft | 414 kts | 298° |
| 2026-04-28 01:09 | 61.46412 | -1.18903 | 40433 ft | 414 kts | 298° |
| 2026-04-28 01:10 | 61.48683 | -1.30043 | 40427 ft | 413 kts | 298° |
| 2026-04-28 01:10 | 61.50913 | -1.41049 | 40408 ft | 413 kts | 298° |
| 2026-04-28 01:11 | 61.53162 | -1.52205 | 40424 ft | 413 kts | 298° |
| 2026-04-28 01:11 | 61.55370 | -1.63218 | 40431 ft | 413 kts | 298° |
| 2026-04-28 01:12 | 61.57586 | -1.74327 | 40428 ft | 413 kts | 297° |
| 2026-04-28 01:12 | 61.59793 | -1.85457 | 40427 ft | 413 kts | 297° |
| 2026-04-28 01:13 | 61.61995 | -1.96625 | 40424 ft | 413 kts | 297° |
| 2026-04-28 01:13 | 61.65282 | -2.13407 | 40401 ft | 414 kts | 297° |
| 2026-04-28 01:14 | 61.67461 | -2.24614 | 40415 ft | 414 kts | 296° |
| 2026-04-28 01:14 | 61.69629 | -2.35824 | 40424 ft | 413 kts | 296° |
| 2026-04-28 01:15 | 61.71788 | -2.47053 | 40423 ft | 413 kts | 296° |
| 2026-04-28 01:15 | 61.73937 | -2.58294 | 40416 ft | 413 kts | 296° |
| 2026-04-28 01:16 | 61.76078 | -2.69557 | 40423 ft | 413 kts | 296° |
| 2026-04-28 01:16 | 61.78208 | -2.80822 | 40415 ft | 413 kts | 296° |
| 2026-04-28 01:17 | 61.80326 | -2.92089 | 40402 ft | 413 kts | 295° |
| 2026-04-28 01:17 | 61.82435 | -3.03375 | 40411 ft | 412 kts | 295° |
| 2026-04-28 01:18 | 61.84522 | -3.14615 | 40413 ft | 413 kts | 295° |
| 2026-04-28 01:18 | 61.86620 | -3.26023 | 40412 ft | 413 kts | 294° |
| 2026-04-28 01:19 | 61.88666 | -3.37322 | 40416 ft | 413 kts | 294° |
| 2026-04-28 01:19 | 61.90743 | -3.48689 | 40399 ft | 414 kts | 293° |
| 2026-04-28 01:20 | 61.92800 | -3.60074 | 40385 ft | 413 kts | 293° |
| 2026-04-28 01:20 | 61.94862 | -3.71459 | 40397 ft | 413 kts | 294° |
| 2026-04-28 01:21 | 61.96918 | -3.82833 | 40406 ft | 413 kts | 293° |
| 2026-04-28 01:21 | 61.98967 | -3.94263 | 40406 ft | 413 kts | 292° |
| 2026-04-28 01:22 | 62.01027 | -4.05696 | 40397 ft | 414 kts | 294° |
| 2026-04-28 01:22 | 62.03203 | -4.17029 | 40401 ft | 414 kts | 295° |
| 2026-04-28 01:23 | 62.05405 | -4.28376 | 40401 ft | 415 kts | 295° |
| 2026-04-28 01:23 | 62.07600 | -4.39750 | 40396 ft | 415 kts | 294° |
| 2026-04-28 01:24 | 62.09776 | -4.51160 | 40380 ft | 415 kts | 294° |
| 2026-04-28 01:24 | 62.11929 | -4.62579 | 40383 ft | 414 kts | 294° |
| 2026-04-28 01:25 | 62.14072 | -4.73975 | 40382 ft | 413 kts | 294° |
| 2026-04-28 01:25 | 62.16202 | -4.85387 | 40384 ft | 412 kts | 293° |
| 2026-04-28 01:26 | 62.18316 | -4.96773 | 40372 ft | 411 kts | 293° |
| 2026-04-28 01:26 | 62.20416 | -5.08144 | 40347 ft | 409 kts | 292° |
| 2026-04-28 01:27 | 62.22493 | -5.19476 | 40371 ft | 408 kts | 292° |
| 2026-04-28 01:27 | 62.24569 | -5.30839 | 40376 ft | 409 kts | 292° |
| 2026-04-28 01:28 | 62.26636 | -5.42251 | 40369 ft | 411 kts | 292° |
| 2026-04-28 01:28 | 62.28706 | -5.53741 | 40369 ft | 413 kts | 292° |
| 2026-04-28 01:29 | 62.30778 | -5.65302 | 40359 ft | 415 kts | 292° |
| 2026-04-28 01:29 | 62.32851 | -5.76931 | 40354 ft | 417 kts | 292° |
| 2026-04-28 01:30 | 62.34923 | -5.88619 | 40334 ft | 419 kts | 291° |
| 2026-04-28 01:30 | 62.36990 | -6.00375 | 40347 ft | 420 kts | 291° |
| 2026-04-28 01:31 | 62.39057 | -6.12192 | 40359 ft | 422 kts | 291° |
| 2026-04-28 01:31 | 62.41119 | -6.24053 | 40357 ft | 423 kts | 291° |
| 2026-04-28 01:32 | 62.43174 | -6.35960 | 40343 ft | 424 kts | 290° |
| 2026-04-28 01:32 | 62.45223 | -6.47894 | 40342 ft | 424 kts | 290° |
| 2026-04-28 01:33 | 62.47261 | -6.59836 | 40347 ft | 423 kts | 290° |
| 2026-04-28 01:33 | 62.49281 | -6.71752 | 40339 ft | 420 kts | 289° |
| 2026-04-28 01:34 | 62.51275 | -6.83609 | 40337 ft | 418 kts | 289° |
| 2026-04-28 01:34 | 62.53244 | -6.95392 | 40346 ft | 415 kts | 289° |
| 2026-04-28 01:35 | 62.55192 | -7.07114 | 40342 ft | 412 kts | 289° |
| 2026-04-28 01:35 | 62.57120 | -7.18784 | 40346 ft | 410 kts | 289° |
| 2026-04-28 01:36 | 62.59035 | -7.30437 | 40327 ft | 410 kts | 289° |
| 2026-04-28 01:36 | 62.60926 | -7.42025 | 40329 ft | 409 kts | 288° |
| 2026-04-28 01:37 | 62.62815 | -7.53690 | 40356 ft | 410 kts | 288° |
| 2026-04-28 01:37 | 62.64701 | -7.65386 | 40334 ft | 410 kts | 287° |
| 2026-04-28 01:38 | 62.66574 | -7.77100 | 40321 ft | 410 kts | 287° |
| 2026-04-28 01:38 | 62.68439 | -7.88845 | 40319 ft | 410 kts | 287° |
| 2026-04-28 01:39 | 62.70305 | -8.00655 | 40322 ft | 410 kts | 287° |
| 2026-04-28 01:39 | 62.71839 | -8.10410 | 40312 ft | 409 kts | 287° |
| 2026-04-28 01:40 | 62.73969 | -8.24069 | 40307 ft | 409 kts | 287° |
| 2026-04-28 01:40 | 62.75790 | -8.35824 | 40311 ft | 409 kts | 287° |
| 2026-04-28 01:41 | 62.77613 | -8.47669 | 40301 ft | 409 kts | 287° |
| 2026-04-28 01:41 | 62.79411 | -8.59450 | 40303 ft | 409 kts | 287° |
| 2026-04-28 01:42 | 62.81187 | -8.71161 | 40292 ft | 409 kts | 286° |
| 2026-04-28 01:42 | 62.82966 | -8.82955 | 40299 ft | 408 kts | 287° |
| 2026-04-28 01:43 | 62.84735 | -8.94767 | 40314 ft | 408 kts | 286° |
| 2026-04-28 01:43 | 62.86495 | -9.06583 | 40296 ft | 408 kts | 285° |
| 2026-04-28 01:44 | 62.88243 | -9.18419 | 40278 ft | 408 kts | 285° |
| 2026-04-28 01:44 | 62.89981 | -9.30259 | 40278 ft | 408 kts | 285° |
| 2026-04-28 01:45 | 62.91708 | -9.42103 | 40279 ft | 407 kts | 285° |
| 2026-04-28 01:45 | 62.93423 | -9.53947 | 40266 ft | 407 kts | 285° |
| 2026-04-28 01:46 | 62.95125 | -9.65787 | 40260 ft | 407 kts | 285° |
| 2026-04-28 01:46 | 62.96823 | -9.77650 | 40267 ft | 406 kts | 285° |
| 2026-04-28 01:47 | 62.98513 | -9.89512 | 40260 ft | 407 kts | 284° |
| 2026-04-28 01:47 | 63.00187 | -10.01410 | 40261 ft | 408 kts | 285° |
| 2026-04-28 01:48 | 63.01631 | -10.11389 | 40254 ft | 409 kts | 285° |
| 2026-04-28 01:48 | 63.03373 | -10.23264 | 40255 ft | 411 kts | 285° |
| 2026-04-28 01:49 | 63.05127 | -10.35274 | 40240 ft | 412 kts | 285° |
| 2026-04-28 01:49 | 63.06873 | -10.47322 | 40246 ft | 413 kts | 284° |
| 2026-04-28 01:50 | 63.08609 | -10.59416 | 40244 ft | 413 kts | 284° |
| 2026-04-28 01:50 | 63.10334 | -10.71526 | 40228 ft | 413 kts | 283° |
| 2026-04-28 01:51 | 63.12045 | -10.83619 | 40234 ft | 412 kts | 283° |
| 2026-04-28 01:51 | 63.13748 | -10.95709 | 40225 ft | 412 kts | 283° |
| 2026-04-28 01:52 | 63.15437 | -11.07814 | 40218 ft | 412 kts | 283° |
| 2026-04-28 01:52 | 63.17114 | -11.19926 | 40224 ft | 411 kts | 283° |
| 2026-04-28 01:53 | 63.18777 | -11.32017 | 40204 ft | 410 kts | 283° |
| 2026-04-28 01:53 | 63.20428 | -11.44122 | 40208 ft | 410 kts | 282° |
| 2026-04-28 01:54 | 63.22070 | -11.56240 | 40201 ft | 410 kts | 282° |
| 2026-04-28 01:54 | 63.23702 | -11.68373 | 40206 ft | 411 kts | 282° |
| 2026-04-28 01:55 | 63.25325 | -11.80551 | 40219 ft | 412 kts | 282° |
| 2026-04-28 01:55 | 63.26943 | -11.92766 | 40197 ft | 412 kts | 282° |
| 2026-04-28 01:56 | 63.28551 | -12.04999 | 40176 ft | 413 kts | 281° |
| 2026-04-28 01:56 | 63.30150 | -12.17256 | 40193 ft | 413 kts | 281° |
| 2026-04-28 01:57 | 63.31742 | -12.29528 | 40171 ft | 413 kts | 281° |
| 2026-04-28 01:57 | 63.33321 | -12.41812 | 40176 ft | 413 kts | 281° |
| 2026-04-28 01:58 | 63.34889 | -12.54107 | 40176 ft | 413 kts | 281° |
| 2026-04-28 01:58 | 63.36446 | -12.66430 | 40167 ft | 413 kts | 280° |
| 2026-04-28 01:59 | 63.37994 | -12.78771 | 40159 ft | 413 kts | 281° |
| 2026-04-28 01:59 | 63.39530 | -12.91119 | 40155 ft | 413 kts | 280° |
| 2026-04-28 02:00 | 63.41058 | -13.03495 | 40155 ft | 413 kts | 280° |
| 2026-04-28 02:00 | 63.42576 | -13.15874 | 40140 ft | 414 kts | 279° |
| 2026-04-28 02:01 | 63.44075 | -13.28208 | 40163 ft | 414 kts | 279° |
| 2026-04-28 02:01 | 63.45572 | -13.40642 | 40146 ft | 415 kts | 279° |
| 2026-04-28 02:02 | 63.47061 | -13.53109 | 40137 ft | 415 kts | 279° |
| 2026-04-28 02:02 | 63.48539 | -13.65579 | 40121 ft | 414 kts | 279° |
| 2026-04-28 02:03 | 63.50006 | -13.78047 | 40123 ft | 414 kts | 279° |
| 2026-04-28 02:03 | 63.51457 | -13.90513 | 40119 ft | 414 kts | 279° |
| 2026-04-28 02:04 | 63.52899 | -14.02992 | 40118 ft | 414 kts | 278° |
| 2026-04-28 02:04 | 63.54329 | -14.15478 | 40105 ft | 414 kts | 278° |
| 2026-04-28 02:05 | 63.55750 | -14.27990 | 40097 ft | 414 kts | 278° |
| 2026-04-28 02:05 | 63.57162 | -14.40528 | 40095 ft | 414 kts | 278° |
| 2026-04-28 02:06 | 63.58562 | -14.53076 | 40093 ft | 414 kts | 278° |
| 2026-04-28 02:06 | 63.59953 | -14.65642 | 40084 ft | 415 kts | 278° |
| 2026-04-28 02:07 | 63.61333 | -14.78223 | 40091 ft | 415 kts | 277° |
| 2026-04-28 02:07 | 63.62704 | -14.90845 | 40099 ft | 416 kts | 277° |
| 2026-04-28 02:08 | 63.64066 | -15.03477 | 40080 ft | 416 kts | 277° |
| 2026-04-28 02:08 | 63.65415 | -15.16130 | 40071 ft | 415 kts | 277° |
| 2026-04-28 02:09 | 63.66754 | -15.28766 | 40070 ft | 415 kts | 277° |
| 2026-04-28 02:09 | 63.68081 | -15.41425 | 40053 ft | 415 kts | 276° |
| 2026-04-28 02:10 | 63.69390 | -15.54069 | 40050 ft | 414 kts | 277° |
| 2026-04-28 02:10 | 63.70691 | -15.66725 | 40081 ft | 414 kts | 276° |
| 2026-04-28 02:11 | 63.71986 | -15.79401 | 40068 ft | 415 kts | 276° |
| 2026-04-28 02:11 | 63.73267 | -15.92097 | 40056 ft | 415 kts | 276° |
| 2026-04-28 02:12 | 63.74541 | -16.04827 | 40050 ft | 416 kts | 276° |
| 2026-04-28 02:12 | 63.75805 | -16.17578 | 40052 ft | 416 kts | 276° |
| 2026-04-28 02:13 | 63.77059 | -16.30357 | 40052 ft | 417 kts | 276° |
| 2026-04-28 02:13 | 63.78306 | -16.43153 | 40050 ft | 417 kts | 275° |
| 2026-04-28 02:14 | 63.79545 | -16.55979 | 40049 ft | 417 kts | 275° |
| 2026-04-28 02:14 | 63.80612 | -16.68853 | 40056 ft | 413 kts | 271° |
| 2026-04-28 02:15 | 63.81550 | -16.88228 | 40060 ft | 413 kts | 270° |
| 2026-04-28 02:16 | 63.82157 | -17.01155 | 40063 ft | 413 kts | 270° |
| 2026-04-28 02:16 | 63.82778 | -17.14090 | 40061 ft | 413 kts | 270° |
| 2026-04-28 02:17 | 63.83398 | -17.27043 | 40057 ft | 413 kts | 270° |
| 2026-04-28 02:17 | 63.84006 | -17.39981 | 40077 ft | 413 kts | 269° |
| 2026-04-28 02:18 | 63.84599 | -17.52932 | 40059 ft | 413 kts | 269° |
| 2026-04-28 02:18 | 63.85176 | -17.65697 | 40042 ft | 413 kts | 269° |
| 2026-04-28 02:19 | 63.85749 | -17.78648 | 40040 ft | 412 kts | 269° |
| 2026-04-28 02:19 | 63.86311 | -17.91578 | 40043 ft | 412 kts | 268° |
| 2026-04-28 02:20 | 63.86841 | -18.04531 | 40049 ft | 412 kts | 266° |
| 2026-04-28 02:20 | 63.87028 | -18.11036 | 39702 ft | 418 kts | 268° |
| 2026-04-28 02:20 | 63.87279 | -18.17616 | 39223 ft | 418 kts | 268° |
| 2026-04-28 02:20 | 63.87644 | -18.24153 | 38703 ft | 418 kts | 271° |
| 2026-04-28 02:21 | 63.88081 | -18.30670 | 37965 ft | 415 kts | 270° |
| 2026-04-28 02:21 | 63.88400 | -18.37133 | 37350 ft | 409 kts | 268° |
| 2026-04-28 02:21 | 63.88633 | -18.43544 | 36719 ft | 406 kts | 266° |
| 2026-04-28 02:21 | 63.88839 | -18.49911 | 36104 ft | 403 kts | 266° |
| 2026-04-28 02:22 | 63.89044 | -18.56251 | 35435 ft | 403 kts | 266° |
| 2026-04-28 02:22 | 63.89256 | -18.62592 | 34780 ft | 402 kts | 266° |
| 2026-04-28 02:22 | 63.89475 | -18.68907 | 34100 ft | 402 kts | 266° |
| 2026-04-28 02:22 | 63.89701 | -18.75206 | 33517 ft | 397 kts | 266° |
| 2026-04-28 02:23 | 63.89928 | -18.81423 | 33000 ft | 392 kts | 266° |
| 2026-04-28 02:23 | 63.90153 | -18.87538 | 32530 ft | 386 kts | 266° |
| 2026-04-28 02:23 | 63.90372 | -18.93577 | 32057 ft | 381 kts | 266° |
| 2026-04-28 02:23 | 63.90582 | -18.99522 | 31576 ft | 376 kts | 266° |
| 2026-04-28 02:24 | 63.90782 | -19.05423 | 31125 ft | 372 kts | 266° |
| 2026-04-28 02:24 | 63.90980 | -19.11269 | 30664 ft | 369 kts | 265° |
| 2026-04-28 02:24 | 63.91176 | -19.17055 | 30205 ft | 367 kts | 265° |
| 2026-04-28 02:24 | 63.91368 | -19.22809 | 29694 ft | 364 kts | 265° |
| 2026-04-28 02:25 | 63.91558 | -19.28520 | 29216 ft | 361 kts | 265° |
| 2026-04-28 02:25 | 63.91746 | -19.34175 | 28733 ft | 356 kts | 265° |
| 2026-04-28 02:25 | 63.91930 | -19.39753 | 28296 ft | 352 kts | 265° |
| 2026-04-28 02:25 | 63.92109 | -19.45263 | 27840 ft | 348 kts | 265° |
| 2026-04-28 02:26 | 63.92284 | -19.50730 | 27367 ft | 346 kts | 265° |
| 2026-04-28 02:26 | 63.92455 | -19.56153 | 26927 ft | 343 kts | 264° |
| 2026-04-28 02:26 | 63.92623 | -19.61578 | 26495 ft | 347 kts | 264° |
| 2026-04-28 02:26 | 63.92786 | -19.67128 | 26038 ft | 357 kts | 265° |
| 2026-04-28 02:27 | 63.92954 | -19.72774 | 25558 ft | 357 kts | 265° |
| 2026-04-28 02:27 | 63.93124 | -19.78378 | 25085 ft | 353 kts | 265° |
| 2026-04-28 02:27 | 63.93235 | -19.82049 | 24786 ft | 351 kts | 264° |
| 2026-04-28 02:27 | 63.93400 | -19.87568 | 24335 ft | 347 kts | 264° |
| 2026-04-28 02:28 | 63.93610 | -19.94782 | 23822 ft | 343 kts | 263° |
| 2026-04-28 02:28 | 63.93764 | -20.00184 | 23306 ft | 341 kts | 263° |
| 2026-04-28 02:28 | 63.93866 | -20.03804 | 22953 ft | 339 kts | 263° |
| 2026-04-28 02:28 | 63.94015 | -20.09108 | 22498 ft | 333 kts | 263° |
| 2026-04-28 02:29 | 63.94160 | -20.14328 | 22064 ft | 328 kts | 263° |
| 2026-04-28 02:29 | 63.94300 | -20.19459 | 21645 ft | 323 kts | 262° |
| 2026-04-28 02:29 | 63.94436 | -20.24514 | 21227 ft | 318 kts | 262° |
| 2026-04-28 02:29 | 63.94568 | -20.29511 | 20803 ft | 314 kts | 262° |
| 2026-04-28 02:30 | 63.94696 | -20.34436 | 20389 ft | 311 kts | 262° |
| 2026-04-28 02:30 | 63.94825 | -20.39298 | 20056 ft | 305 kts | 262° |
| 2026-04-28 02:30 | 63.94953 | -20.44091 | 19645 ft | 302 kts | 262° |
| 2026-04-28 02:30 | 63.95078 | -20.48831 | 19253 ft | 299 kts | 262° |
| 2026-04-28 02:31 | 63.95200 | -20.53531 | 18866 ft | 296 kts | 261° |
| 2026-04-28 02:31 | 63.95318 | -20.58200 | 18469 ft | 294 kts | 261° |
| 2026-04-28 02:31 | 63.95435 | -20.62814 | 18064 ft | 291 kts | 261° |
| 2026-04-28 02:31 | 63.95550 | -20.67404 | 17649 ft | 288 kts | 261° |
| 2026-04-28 02:32 | 63.95662 | -20.71925 | 17255 ft | 285 kts | 261° |
| 2026-04-28 02:32 | 63.95772 | -20.76400 | 16864 ft | 282 kts | 261° |
| 2026-04-28 02:32 | 63.95876 | -20.80789 | 16505 ft | 282 kts | 261° |
| 2026-04-28 02:32 | 63.95979 | -20.85268 | 16092 ft | 285 kts | 261° |
| 2026-04-28 02:33 | 63.96083 | -20.89810 | 15692 ft | 292 kts | 262° |
| 2026-04-28 02:33 | 63.96187 | -20.94491 | 15284 ft | 299 kts | 262° |
| 2026-04-28 02:33 | 63.96299 | -20.99229 | 14865 ft | 299 kts | 262° |
| 2026-04-28 02:33 | 63.96410 | -21.03900 | 14468 ft | 293 kts | 262° |
| 2026-04-28 02:34 | 63.96515 | -21.08507 | 14055 ft | 289 kts | 262° |
| 2026-04-28 02:34 | 63.96615 | -21.13043 | 13633 ft | 283 kts | 262° |
| 2026-04-28 02:34 | 63.96713 | -21.17478 | 13198 ft | 278 kts | 262° |
| 2026-04-28 02:34 | 63.96807 | -21.21820 | 12824 ft | 273 kts | 262° |
| 2026-04-28 02:35 | 63.96896 | -21.26130 | 12447 ft | 273 kts | 262° |
| 2026-04-28 02:35 | 63.96986 | -21.30466 | 12053 ft | 277 kts | 263° |
| 2026-04-28 02:35 | 63.97073 | -21.34962 | 11665 ft | 289 kts | 263° |
| 2026-04-28 02:35 | 63.97165 | -21.39574 | 11245 ft | 292 kts | 264° |
| 2026-04-28 02:36 | 63.97261 | -21.44126 | 10988 ft | 281 kts | 264° |
| 2026-04-28 02:36 | 63.97552 | -21.48487 | 10712 ft | 285 kts | 280° |
| 2026-04-28 02:36 | 63.98352 | -21.52618 | 10423 ft | 282 kts | 285° |
| 2026-04-28 02:36 | 63.99182 | -21.56620 | 10099 ft | 277 kts | 285° |
| 2026-04-28 02:37 | 63.99999 | -21.60558 | 9791 ft | 272 kts | 285° |
| 2026-04-28 02:37 | 64.00794 | -21.64428 | 9497 ft | 269 kts | 285° |
| 2026-04-28 02:37 | 64.01580 | -21.68289 | 9215 ft | 269 kts | 284° |
| 2026-04-28 02:37 | 64.02364 | -21.72170 | 8883 ft | 269 kts | 284° |
| 2026-04-28 02:38 | 64.03144 | -21.76046 | 8554 ft | 268 kts | 284° |
| 2026-04-28 02:38 | 64.03919 | -21.79902 | 8251 ft | 267 kts | 284° |
| 2026-04-28 02:38 | 64.04689 | -21.83741 | 7954 ft | 266 kts | 284° |
| 2026-04-28 02:38 | 64.05455 | -21.87569 | 7642 ft | 265 kts | 284° |
| 2026-04-28 02:39 | 64.06217 | -21.91390 | 7343 ft | 263 kts | 284° |
| 2026-04-28 02:39 | 64.06971 | -21.95181 | 7056 ft | 262 kts | 284° |
| 2026-04-28 02:39 | 64.07723 | -21.98968 | 6752 ft | 262 kts | 284° |
| 2026-04-28 02:39 | 64.08474 | -22.02760 | 6440 ft | 261 kts | 284° |
| 2026-04-28 02:40 | 64.09220 | -22.06530 | 6125 ft | 260 kts | 284° |
| 2026-04-28 02:40 | 64.09964 | -22.10290 | 5787 ft | 259 kts | 284° |
| 2026-04-28 02:40 | 64.10702 | -22.14035 | 5469 ft | 257 kts | 284° |
| 2026-04-28 02:40 | 64.11435 | -22.17757 | 5154 ft | 256 kts | 284° |
| 2026-04-28 02:41 | 64.12163 | -22.21465 | 4850 ft | 255 kts | 284° |
| 2026-04-28 02:41 | 64.12882 | -22.25133 | 4601 ft | 251 kts | 284° |
| 2026-04-28 02:41 | 64.13594 | -22.28765 | 4348 ft | 250 kts | 284° |
| 2026-04-28 02:41 | 64.14306 | -22.32417 | 4106 ft | 253 kts | 284° |
| 2026-04-28 02:42 | 64.15023 | -22.36099 | 3859 ft | 251 kts | 284° |
| 2026-04-28 02:42 | 64.15727 | -22.39704 | 3599 ft | 245 kts | 285° |
| 2026-04-28 02:42 | 64.16413 | -22.43219 | 3352 ft | 239 kts | 284° |
| 2026-04-28 02:42 | 64.17040 | -22.46670 | 3158 ft | 226 kts | 273° |
| 2026-04-28 02:43 | 64.16909 | -22.49910 | 3026 ft | 191 kts | 234° |
| 2026-04-28 02:43 | 64.16281 | -22.52458 | 2866 ft | 180 kts | 232° |
| 2026-04-28 02:43 | 64.15681 | -22.54927 | 2727 ft | 176 kts | 232° |
| 2026-04-28 02:43 | 64.15082 | -22.57419 | 2582 ft | 174 kts | 232° |
| 2026-04-28 02:44 | 64.14489 | -22.59693 | 2480 ft | 160 kts | 220° |
| 2026-04-28 02:44 | 64.13585 | -22.60523 | 2394 ft | 139 kts | 176° |
| 2026-04-28 02:44 | 64.12631 | -22.60371 | 2274 ft | 134 kts | 186° |
| 2026-04-28 02:44 | 64.11737 | -22.60516 | 2154 ft | 125 kts | 182° |
| 2026-04-28 02:45 | 64.10883 | -22.60528 | 2056 ft | 121 kts | 182° |
| 2026-04-28 02:45 | 64.10053 | -22.60533 | 2009 ft | 115 kts | 182° |
| 2026-04-28 02:45 | 64.09298 | -22.60526 | 2159 ft | 110 kts | 183° |
| 2026-04-28 02:45 | 64.08504 | -22.60478 | 1806 ft | 116 kts | 182° |
| 2026-04-28 02:46 | 64.07749 | -22.60412 | 1633 ft | 103 kts | 182° |
| 2026-04-28 02:46 | 64.07042 | -22.60379 | 1415 ft | 104 kts | 184° |
| 2026-04-28 02:46 | 64.06238 | -22.60407 | 1310 ft | 120 kts | 184° |
| 2026-04-28 02:46 | 64.05388 | -22.60447 | 1242 ft | 124 kts | 182° |
| 2026-04-28 02:47 | 64.04530 | -22.60462 | 1143 ft | 122 kts | 184° |
| 2026-04-28 02:47 | 64.03690 | -22.60459 | 972 ft | 119 kts | 182° |
| 2026-04-28 02:47 | 64.02859 | -22.60538 | 808 ft | 122 kts | 183° |
| 2026-04-28 02:47 | 64.02001 | -22.60521 | 695 ft | 124 kts | 179° |
| 2026-04-28 02:48 | 64.01153 | -22.60528 | 538 ft | 121 kts | 180° |
| 2026-04-28 02:48 | 64.00281 | -22.60505 | 378 ft | 126 kts | 182° |
| 2026-04-28 02:48 | 63.99384 | -22.60534 | 235 ft | 126 kts | 177° |
| 2026-04-28 02:48 | 63.98548 | -22.60545 | 152 ft | 115 kts | 179° |
| 2026-04-28 02:49 | 63.97949 | -22.60543 | 147 ft | 55 kts | 175° |
| 2026-04-28 02:49 | 63.97784 | -22.60534 | 147 ft | 0 kts | 182° |
| 2026-04-28 02:49 | 63.97740 | -22.60540 | 147 ft | 17 kts | 182° |
| 2026-04-28 02:49 | 63.97565 | -22.60537 | 148 ft | 28 kts | 179° |
| 2026-04-28 02:50 | 63.97419 | -22.60499 | 146 ft | 13 kts | 139° |
| 2026-04-28 02:50 | 63.97373 | -22.60307 | 144 ft | 16 kts | 114° |
| 2026-04-28 02:50 | 63.97347 | -22.60166 | 144 ft | 0 kts | 111° |
| 2026-04-28 02:52 | 63.97338 | -22.60117 | 144 ft | 10 kts | 114° |
| 2026-04-28 02:52 | 63.97307 | -22.59952 | 144 ft | 11 kts | 113° |
| 2026-04-28 02:52 | 63.97275 | -22.59766 | 143 ft | 14 kts | 113° |
| 2026-04-28 02:52 | 63.97236 | -22.59549 | 143 ft | 16 kts | 112° |
| 2026-04-28 02:53 | 63.97241 | -22.59416 | 143 ft | 0 kts | 58° |
| 2026-04-28 02:53 | 63.97251 | -22.59402 | 143 ft | 7 kts | 25° |
| 2026-04-28 02:53 | 63.97327 | -22.59332 | 143 ft | 15 kts | 21° |
| 2026-04-28 02:53 | 63.97434 | -22.59232 | 143 ft | 14 kts | 20° |
| 2026-04-28 02:54 | 63.97507 | -22.59161 | 143 ft | 7 kts | 22° |
| 2026-04-28 02:54 | 63.97518 | -22.59117 | 143 ft | 2 kts | 85° |
| 2026-04-28 02:54 | 63.97513 | -22.58999 | 143 ft | 11 kts | 111° |
| 2026-04-28 02:54 | 63.97512 | -22.58991 | 143 ft | 0 kts | 111° |